Racecast

Molly Graves

Granite Bay (CA) · 12 · SFLCA D2SJS D2 · Compare head to head

Athlete rating 115.8 2013 XC season
Best race 120.8 TF
Races 74
Seasons 4 2012 — 2015

RankedNation #22059·CA #2886·CA D2 #1298·SJS #239·SJS D2 #60·SFL #73·Team #15 ?

Speed rating — all races

Cross Country

XC speed rating

2013 XC 113.5

Granite Bay (CA) · Grade 11

Date Meet Event Result Place Rating Difficulty PR/SR Flags
2013-11-30 Woodward Park 5000m 21:18 171st · 6th on team 117.3 +0.013 ★PR ★CR SR CSR RSR
2013-09-28 Stanford University Golf Course 5000m 22:35 170th · 5th on team 109.8 +0.002 PR ★CR SR CSR RSR

Track & Field

TF speed rating

2015 TF

Granite Bay (CA) · Grade 12

Date Meet Event Result Place Rating Difficulty PR/SR Flags
2015-05-15 SFL Finals lj 15-08.25 -0.024
2015-05-15 SFL Finals 300mh 51.93 18th · 3rd on team -0.024
2015-05-06 SFL #4 Granite Bay & Rocklin @ Oak Ridge lj 15-00.00 -0.018
2015-05-06 SFL #4 Granite Bay & Rocklin @ Oak Ridge 100mh 18.24 4th · 1st on team -0.018
2015-04-23 SFL #2 Woodcreek @ Granite Bay lj 15-08.00 -0.027
2015-04-23 SFL #2 Woodcreek @ Granite Bay 100mh 17.36 1st · 1st on team -0.027 SR
2015-04-23 SFL #2 Woodcreek @ Granite Bay 300mh 50.75 1st · 1st on team -0.027 SR
2015-03-14 Sturgeon Invitational (formerly the King Gilbert Invite) lj 15-04.00 -0.027
2015-03-14 Sturgeon Invitational (formerly the King Gilbert Invite) 100mh 17.5 6th · 2nd on team -0.027 SR

2014 TF

Granite Bay (CA) · Grade 11

Date Meet Event Result Place Rating Difficulty PR/SR Flags
2014-05-21 Sac Joaquin Section Div I Trials lj 16-05.00 -0.033
2014-05-15 SFL Finals lj 15-08.75 -0.012
2014-05-15 SFL Finals 300mh 48.97 11th · 4th on team -0.012 PR SR
2014-05-15 SFL Finals 300mh 48.72 10th · 3rd on team -0.012 ★PR SR
2014-04-23 Woodcreek @ Granite Bay lj 14'6.5" -0.027
2014-04-23 Woodcreek @ Granite Bay 100mh 17.14 1st · 1st on team -0.027 ★PR SR
2014-04-23 Woodcreek @ Granite Bay 300mh 49.04 1st · 1st on team -0.027 PR SR
2014-04-19 Woody Wilson Classic 100mh 17.38 9th · 1st on team -0.034
2014-04-19 Woody Wilson Classic 300mh 49.61 9th · 1st on team -0.034 SR
2014-04-09 Nevada Union @ Granite Bay lj 15'4" -0.027
2014-04-09 Nevada Union @ Granite Bay 100mh 17.24 2nd · 1st on team -0.027 PR SR
2014-04-09 Nevada Union @ Granite Bay 300mh 49.74 2nd · 1st on team -0.027 SR
2014-04-04 Stanford Invitational Day 1 400mh 1:10.32 20th · 1st on team -0.047 ★PR SR
2014-04-02 Granite Bay at Roseville lj 15'8.25" -0.009
2014-04-02 Granite Bay at Roseville 300mh 50.24 1st · 1st on team -0.009
2014-03-29 Thunder Invitational 300mh 50.35 2nd · 2nd on team -0.024
2014-03-29 Thunder Invitational 100mh 18.7 11th · 2nd on team -0.024 SR
2014-03-08 King/Gilbert Invitational 100mh 18.81 14th · 1st on team -0.027 SR
2014-03-08 King/Gilbert Invitational 300mh 50.11 5th · 2nd on team -0.027 SR

2013 TF 117.2

Granite Bay (CA) · Grade 10

Date Meet Event Result Place Rating Difficulty PR/SR Flags
2013-05-09 SFL Championships Finals lj DNS -0.009
2013-05-09 SFL Championships Finals 300mh 49.23 13th · 2nd on team -0.009
2013-05-09 SFL Championships Finals 300mh 49.09 12th · 1st on team -0.009
2013-05-07 SFL Championships Trials 300mh 49.09 1st · 1st on team -0.009 PR SR
2013-05-03 Roseville District Cup 300mh 51.18 2nd · 1st on team -0.025
2013-04-24 SFL Meet vs. Granite Bay shot 21'3" -0.027
2013-04-24 SFL Meet vs. Granite Bay 800m 2:42.1 5th · 2nd on team 113.6 -0.027
2013-04-10 SFL Granite Bay @ Nevada Union lj 15'0" -0.015
2013-04-10 SFL Granite Bay @ Nevada Union 800m 2:34 3rd · 2nd on team 120.8 -0.015 ★PR ★R SR RSR
2013-04-06 Thunder Invitational lj 15-00.50 -0.024
2013-04-06 Thunder Invitational 300mh 50.21 9th · 1st on team -0.024 PR SR
2013-04-03 SFL Granite Bay vs Roseville lj 14'10.5" -0.027
2013-04-03 SFL Granite Bay vs Roseville 100mh 17.74 1st · 1st on team -0.027 SR
2013-04-03 SFL Granite Bay vs Roseville 400m 1:06.24 4th · 3rd on team -0.027 SR
2013-03-29 Stanford Invitational 400mh 1:11.39 18th · 1st on team -0.047 PR SR
2013-03-16 Depth Charge lj 15-02.75 -0.020
2013-03-16 Depth Charge 300mh 50.3 4th · 1st on team -0.020 PR SR
2013-03-09 King/Gilbert Invitational 300mh 51.22 1st · 1st on team -0.027 SR
2013-03-09 King/Gilbert Invitational 100mh 18.38 6th · 2nd on team -0.027 SR
2013-03-02 9th Annual CSUS Track Classic lj 13-05.00 -0.032
2013-03-02 9th Annual CSUS Track Classic 300mh 51.82 13th · 1st on team -0.032 SR

2012 TF

Granite Bay (CA) · Grade 9

Date Meet Event Result Place Rating Difficulty PR/SR Flags
2012-05-11 SFL Finals 300mh 50.57 4th · 1st on team -0.024 PR SR
2012-05-11 SFL Finals 300mh 50.86 5th · 2nd on team -0.024
2012-05-11 SFL Finals 100mh 18.03 11th · 4th on team -0.024
2012-05-11 SFL Finals 100mh 17.69 6th · 3rd on team -0.024
2012-05-04 RJUHSD District Cup Championship 300mh 51.94 4th · 1st on team -0.025
2012-05-04 RJUHSD District Cup Championship 100mh 17.88 5th · 2nd on team -0.025
2012-05-02 Granite Bay at Roseville 100mh 19.68 3rd · 2nd on team -0.009
2012-05-02 Granite Bay at Roseville 300mh 53.08 1st · 1st on team -0.009
2012-04-25 Rocklin @ Granite Bay 100mh 17.64 1st · 1st on team -0.027
2012-04-25 Rocklin @ Granite Bay 300mh 50.74 1st · 1st on team -0.027
2012-04-23 Woodcreek @ Granite Bay 100mh 17.64 1st · 1st on team -0.027 PR SR
2012-04-23 Woodcreek @ Granite Bay 300mh 50.64 1st · 1st on team -0.027 PR SR
2012-04-21 Halden Invitational 400m 1:04.9 4th · 1st on team -0.026 ★PR SR
2012-04-21 Halden Invitational 100mh 17.93 2nd · 2nd on team -0.026 PR SR
2012-04-18 Granite Bay @ Del Oro 100mh 18.24 1st · 1st on team -0.024
2012-04-18 Granite Bay @ Del Oro 300mh 52.44 1st · 1st on team -0.024
2012-03-28 SFL #1 vs Nevada Union 100mh 18.24 1st · 1st on team -0.027 PR SR
2012-03-28 SFL #1 vs Nevada Union 300mh 51.94 1st · 1st on team -0.027 PR SR
2012-03-10 Bob King - Don Gilbert Invitational 300mh 55.83 8th · 1st on team -0.027 PR SR
2012-03-10 Bob King - Don Gilbert Invitational 100mh 18.3 2nd · 1st on team -0.027 PR SR
2012-03-03 8th Annual Sacramento State Track Classic 300mh 1:02.79 28th · 2nd on team -0.032 PR SR
2012-03-03 8th Annual Sacramento State Track Classic 100mh 18.41 13th · 1st on team -0.032 PR SR
2012-03-03 8th Annual Sacramento State Track Classic 400m 1:08.71 30th · 1st on team -0.032 PR SR